Latest Weather Observations for Jacup

IDW60801

Issued at 5:53 am WST Tuesday 25 September 2018 (issued every 10 minutes, with the page automatically refreshed every 10 minutes)

About weather observations | Map of weather stations | Latest weather observations for WA | Other Formats
Station Details ID: 010905 Name: JACUP Lat: -33.89 Lon: 119.11 Height: 305.0 m
Data from the previous 72 hours. | See also: Recent months at Jacup
Date/Time
WST
Temp
°C
App
Temp
°C
Dew
Point
°C
Rel
Hum
%
Delta-T
°C
Wind Press
QNH
hPa
Press
MSL
hPa
Rain since
9am
mm
Dir  Spd
km/h
Gust
km/h
Spd
kts
Gust
kts
25/05:30am 9.1 7.2 7.4 89 0.8 W 7 9 4 5 1019.1 1019.0 0.0
25/05:00am 10.3 7.8 8.1 86 1.1 WSW 11 17 6 9 1019.0 1018.9 0.0
25/04:30am 11.7 8.4 9.4 86 1.2 W 17 24 9 13 1018.8 1018.7 0.0
25/04:00am 12.0 9.6 10.1 88 1.0 WSW 13 19 7 10 1018.7 1018.6 0.0
25/03:30am 11.8 8.7 10.4 91 0.7 WSW 17 26 9 14 1018.5 1018.4 0.0
25/03:00am 11.9 10.4 10.5 91 0.7 WSW 9 11 5 6 1018.3 1018.2 0.0
25/02:30am 11.9 10.4 10.5 91 0.7 WSW 9 13 5 7 1018.3 1018.2 0.0
25/02:00am 11.8 10.3 10.4 91 0.7 WSW 9 13 5 7 1018.3 1018.2 0.0
25/01:30am 11.9 10.3 10.1 89 0.9 WSW 9 13 5 7 1018.5 1018.4 0.0
25/01:00am 13.1 11.8 11.3 89 1.0 WSW 9 13 5 7 1018.9 1018.8 0.0
25/12:30am 13.1 12.0 11.8 92 0.7 SW 9 17 5 9 1019.1 1019.0 0.0
25/12:00am 12.7 11.9 11.6 93 0.6 SW 7 11 4 6 1019.1 1019.0 0.0
 
Date/Time
WST
Temp
°C
App
Temp
°C
Dew
Point
°C
Rel
Hum
%
Delta-T
°C
Wind Press
QNH
hPa
Press
MSL
hPa
Rain since
9am
mm
Dir  Spd
km/h
Gust
km/h
Spd
kts
Gust
kts
24/11:30pm 12.7 11.1 11.6 93 0.6 SSW 11 17 6 9 1019.3 1019.2 0.0
24/11:00pm 12.8 10.9 11.7 93 0.6 SW 13 20 7 11 1019.4 1019.3 0.0
24/10:30pm 12.9 11.3 11.6 92 0.7 SSW 11 19 6 10 1019.5 1019.4 0.0
24/10:00pm 13.0 11.4 11.6 91 0.8 S 11 17 6 9 1019.7 1019.6 0.0
24/09:30pm 13.2 11.7 11.8 91 0.8 S 11 17 6 9 1019.7 1019.6 0.0
24/09:00pm 13.2 11.6 11.6 90 0.9 S 11 17 6 9 1019.6 1019.5 0.0
24/08:30pm 13.5 12.3 11.7 89 1.0 SSE 9 15 5 8 1019.5 1019.4 0.0
24/08:00pm 14.1 12.3 12.0 87 1.1 SSE 13 19 7 10 1019.5 1019.4 0.0
24/07:30pm 14.3 12.8 12.0 86 1.3 SSE 11 17 6 9 1019.1 1019.0 0.0
24/07:00pm 14.5 12.6 11.7 83 1.5 SSE 13 19 7 10 1018.7 1018.6 0.0
24/06:30pm 15.5 13.6 11.7 78 2.1 SSE 13 20 7 11 1018.1 1018.0 0.0
24/06:00pm 17.0 15.1 11.7 71 2.9 SSE 13 17 7 9 1017.7 1017.6 0.0
24/05:30pm 19.3 15.5 11.1 59 4.5 SSW 22 35 12 19 1016.7 1016.6 0.0
24/05:27pm 21.2 17.8 10.7 51 5.8 W 19 35 10 19 1016.6 1016.5 0.0
24/05:00pm 26.2 21.6 3.5 23 11.4 WNW 17 28 9 15 1016.1 1016.0 0.0
24/04:30pm 27.1 22.0 4.2 23 11.7 NW 20 30 11 16 1015.9 1015.8 0.0
24/04:00pm 27.6 22.5 4.0 22 12.1 WNW 20 30 11 16 1015.7 1015.6 0.0
24/03:30pm 28.0 22.7 5.0 23 12.0 NW 22 41 12 22 1015.7 1015.6 0.0
24/03:00pm 28.4 22.9 5.9 24 11.9 NW 24 39 13 21 1015.7 1015.6 0.0
24/02:30pm 29.8 24.8 6.5 23 12.6 NW 22 37 12 20 1015.8 1015.7 0.0
24/02:16pm 29.4 24.3 6.1 23 12.5 NW 22 41 12 22 1015.8 1015.7 0.0
24/02:00pm 28.3 25.4 8.1 28 11.1 WNW 13 20 7 11 1015.9 1015.8 0.0
24/01:30pm 26.9 24.0 9.7 34 9.7 WNW 15 22 8 12 1016.5 1016.4 0.0
24/01:00pm 26.2 23.9 9.1 34 9.5 W 11 20 6 11 1017.0 1017.0 0.0
24/12:30pm 24.6 22.5 9.7 39 8.3 W 11 20 6 11 1017.3 1017.3 0.0
24/12:00pm 23.4 21.9 10.5 44 7.2 W 9 17 5 9 1017.9 1017.8 0.0
24/11:30am 22.4 20.5 10.5 47 6.6 WNW 11 20 6 11 1018.5 1018.4 0.0
24/11:00am 20.6 18.4 9.5 49 6.0 W 11 17 6 9 1019.0 1018.9 0.0
24/10:30am 19.6 18.0 10.3 55 5.1 WSW 9 15 5 8 1019.1 1019.0 0.0
24/10:00am 18.0 16.1 10.6 62 4.0 S 11 17 6 9 1019.3 1019.2 0.0
24/09:30am 16.9 15.9 11.0 68 3.2 S 7 13 4 7 1019.3 1019.2 0.0
24/09:00am 14.4 13.5 11.2 81 1.7 SSE 7 13 4 7 1019.6 1019.5 0.2
24/08:30am 13.1 12.6 12.2 94 0.5 SE 6 11 3 6 1019.8 1019.8 0.2
24/08:00am 11.3 11.5 10.5 95 0.4 CALM 0 6 0 3 1019.4 1019.3 0.2
24/07:30am 10.7 10.7 9.9 95 0.4 CALM 0 0 0 0 1019.7 1019.6 0.2
24/07:00am 10.5 10.5 9.7 95 0.4 CALM 0 0 0 0 1019.8 1019.8 0.2
24/06:30am 10.2 10.1 9.4 95 0.4 CALM 0 0 0 0 1019.6 1019.5 0.2
24/06:00am 10.2 10.1 9.4 95 0.4 CALM 0 0 0 0 1019.8 1019.8 0.2
24/05:30am 10.1 10.0 9.3 95 0.4 CALM 0 0 0 0 1019.7 1019.6 0.2
24/05:00am 9.9 9.7 9.1 95 0.4 CALM 0 0 0 0 1019.5 1019.4 0.2
24/04:30am 10.1 9.9 9.2 94 0.5 CALM 0 0 0 0 1019.2 1019.1 0.2
24/04:00am 10.2 8.7 9.3 94 0.5 E 7 9 4 5 1018.9 1018.8 0.2
24/03:30am 10.8 9.7 9.9 94 0.5 E 6 9 3 5 1018.9 1018.8 0.2
24/03:00am 10.9 9.8 9.8 93 0.6 E 6 9 3 5 1019.0 1018.9 0.2
24/02:30am 11.4 11.5 10.3 93 0.6 CALM 0 6 0 3 1019.2 1019.1 0.2
24/02:00am 11.4 11.1 10.1 92 0.7 ESE 2 7 1 4 1019.5 1019.4 0.2
24/01:30am 11.8 11.6 10.4 91 0.7 SE 2 7 1 4 1020.0 1020.0 0.2
24/01:00am 11.4 11.0 9.8 90 0.8 SSE 2 9 1 5 1020.2 1020.2 0.2
24/12:30am 11.9 10.6 10.1 89 0.9 E 7 13 4 7 1020.5 1020.5 0.2
24/12:00am 12.4 10.5 10.6 89 0.9 E 11 15 6 8 1020.7 1020.7 0.2
 
Date/Time
WST
Temp
°C
App
Temp
°C
Dew
Point
°C
Rel
Hum
%
Delta-T
°C
Wind Press
QNH
hPa
Press
MSL
hPa
Rain since
9am
mm
Dir  Spd
km/h
Gust
km/h
Spd
kts
Gust
kts
23/11:30pm 12.6 10.8 10.8 89 1.0 ESE 11 17 6 9 1021.1 1021.0 0.2
23/11:00pm 12.8 11.0 10.9 88 1.0 SE 11 17 6 9 1021.4 1021.3 0.2
23/10:30pm 12.8 10.3 10.9 88 1.0 ESE 15 20 8 11 1021.8 1021.7 0.2
23/10:00pm 12.8 9.9 11.0 89 1.0 SE 17 26 9 14 1022.2 1022.1 0.2
23/09:30pm 12.7 9.8 11.1 90 0.9 SE 17 24 9 13 1022.3 1022.2 0.2
23/09:00pm 12.6 9.2 11.2 91 0.7 SE 20 28 11 15 1022.2 1022.1 0.2
23/08:30pm 12.7 9.9 11.3 91 0.7 SE 17 22 9 12 1022.2 1022.1 0.2
23/08:00pm 12.7 10.4 10.6 87 1.1 SE 13 19 7 10 1022.1 1022.0 0.2
23/07:30pm 13.8 12.0 11.0 83 1.5 SE 11 15 6 8 1021.8 1021.7 0.2
23/07:00pm 15.1 13.5 11.5 79 2.0 SSE 11 17 6 9 1021.4 1021.3 0.2
23/06:30pm 16.6 14.8 12.0 74 2.6 SSE 13 20 7 11 1020.9 1020.8 0.2
23/06:00pm 18.2 16.1 12.4 69 3.3 SSE 15 20 8 11 1020.6 1020.6 0.2
23/05:30pm 19.9 17.2 12.9 64 4.0 SSE 19 28 10 15 1020.2 1020.2 0.2
23/05:00pm 21.9 19.6 13.0 57 5.2 S 17 24 9 13 1019.7 1019.6 0.2
23/04:30pm 24.3 21.7 11.9 45 7.1 SSW 17 26 9 14 1019.3 1019.2 0.2
23/04:00pm 27.6 22.2 1.2 18 12.8 W 19 32 10 17 1018.5 1018.4 0.2
23/03:30pm 28.0 22.9 3.0 20 12.6 WNW 19 28 10 15 1018.5 1018.4 0.2
23/03:00pm 27.4 24.1 6.2 26 11.2 W 13 24 7 13 1018.5 1018.4 0.2
23/02:30pm 27.5 24.4 7.4 28 10.9 WNW 13 22 7 12 1018.6 1018.5 0.2
23/02:00pm 26.9 24.9 8.8 32 10.0 W 9 19 5 10 1018.8 1018.7 0.2
23/01:30pm 25.3 24.2 10.7 40 8.3 WNW 7 13 4 7 1018.9 1018.8 0.2
23/01:00pm 25.0 23.6 10.8 41 8.0 WSW 9 13 5 7 1019.1 1019.0 0.2
23/12:30pm 24.5 23.3 11.5 44 7.4 WSW 9 17 5 9 1019.6 1019.5 0.2
23/12:00pm 23.4 22.0 10.8 45 7.1 W 9 15 5 8 1019.8 1019.8 0.2
23/11:30am 22.0 20.7 11.4 51 6.0 WNW 9 13 5 7 1020.1 1020.1 0.2
23/11:00am 21.3 20.8 12.2 56 5.2 NNE 6 11 3 6 1020.3 1020.3 0.2
23/10:30am 19.5 18.9 11.8 61 4.3 NNE 6 11 3 6 1020.5 1020.5 0.2
23/10:00am 17.9 17.7 11.9 68 3.3 N 4 9 2 5 1020.9 1020.8 0.2
23/09:30am 16.7 16.2 12.7 77 2.3 N 7 11 4 6 1021.0 1020.9 0.0
23/09:00am 15.6 14.4 12.7 83 1.6 NE 11 20 6 11 1021.2 1021.1 0.2
23/08:30am 14.5 12.4 12.5 88 1.1 ENE 15 20 8 11 1021.3 1021.2 0.2
23/08:00am 13.6 11.1 12.3 92 0.7 ENE 17 26 9 14 1020.9 1020.8 0.2
23/07:30am 13.2 11.1 12.3 94 0.5 ENE 15 20 8 11 1021.2 1021.1 0.2
23/07:00am 13.0 11.2 12.2 95 0.4 E 13 20 7 11 1021.4 1021.3 0.2
23/06:30am 13.3 10.9 12.5 95 0.4 E 17 22 9 12 1021.1 1021.0 0.2
23/06:00am 12.8 10.2 12.0 95 0.4 E 17 24 9 13 1020.5 1020.5 0.2
23/05:30am 13.0 10.5 12.2 95 0.4 ESE 17 24 9 13 1020.7 1020.7 0.2
23/05:00am 12.9 10.7 12.1 95 0.4 ESE 15 19 8 10 1020.5 1020.5 0.2
23/04:30am 13.0 11.6 12.2 95 0.4 ESE 11 15 6 8 1020.7 1020.7 0.2
23/04:00am 13.0 12.0 12.2 95 0.4 SE 9 13 5 7 1021.0 1020.9 0.2
23/03:30am 13.0 11.7 12.4 96 0.3 SE 11 13 6 7 1021.1 1021.0 0.2
23/03:00am 13.0 11.3 12.4 96 0.3 SE 13 20 7 11 1020.9 1020.8 0.2
23/02:30am 13.0 10.9 12.4 96 0.3 ESE 15 22 8 12 1020.5 1020.5 0.2
23/02:00am 13.1 10.7 12.5 96 0.3 ESE 17 22 9 12 1021.0 1020.9 0.2
23/01:30am 13.2 10.7 12.4 95 0.4 ESE 17 22 9 12 1020.9 1020.8 0.2
23/01:00am 13.3 11.6 12.5 95 0.4 SE 13 19 7 10 1021.6 1021.5 0.2
23/12:30am 13.3 11.2 12.5 95 0.4 SE 15 20 8 11 1021.5 1021.4 0.2
23/12:00am 13.5 11.1 12.7 95 0.4 ESE 17 22 9 12 1021.3 1021.2 0.0
 
Date/Time
WST
Temp
°C
App
Temp
°C
Dew
Point
°C
Rel
Hum
%
Delta-T
°C
Wind Press
QNH
hPa
Press
MSL
hPa
Rain since
9am
mm
Dir  Spd
km/h
Gust
km/h
Spd
kts
Gust
kts
22/11:30pm 13.3 11.2 12.5 95 0.4 SE 15 24 8 13 1022.1 1022.0 0.0
22/11:00pm 13.5 10.7 12.6 94 0.5 SE 19 24 10 13 1021.9 1021.8 0.0
22/10:30pm 13.5 10.5 12.6 94 0.5 ESE 20 28 11 15 1022.2 1022.1 0.0
22/10:00pm 13.5 10.5 12.6 94 0.5 ESE 20 30 11 16 1022.3 1022.2 0.0
22/09:30pm 13.6 11.2 12.5 93 0.6 SE 17 28 9 15 1022.8 1022.8 0.0
22/09:00pm 13.7 11.6 12.3 91 0.8 SSE 15 22 8 12 1022.8 1022.8 0.0
22/08:30pm 13.8 10.6 12.0 89 1.0 SE 20 28 11 15 1022.7 1022.7 0.0
22/08:00pm 13.9 11.3 11.9 88 1.1 SE 17 28 9 15 1022.5 1022.4 0.0
22/07:30pm 14.1 10.5 12.0 87 1.1 SE 22 32 12 17 1022.1 1022.0 0.0
22/07:00pm 14.3 11.1 11.8 85 1.4 SE 20 28 11 15 1021.4 1021.3 0.0
22/06:30pm 14.5 11.5 11.8 84 1.5 SE 19 28 10 15 1021.2 1021.1 0.0
22/06:00pm 14.7 11.4 11.7 82 1.6 SE 20 30 11 16 1021.2 1021.1 0.0
22/05:30pm 15.0 10.9 11.6 80 1.9 SE 24 35 13 19 1020.4 1020.4 0.0
22/05:00pm 16.0 11.9 11.4 74 2.5 SE 24 35 13 19 1020.0 1020.0 0.0
22/04:30pm 17.4 13.8 11.7 69 3.2 ESE 22 32 12 17 1019.7 1019.6 0.0
22/04:00pm 17.6 13.1 11.4 67 3.4 SE 26 37 14 20 1019.6 1019.5 0.0
22/03:30pm 18.8 14.0 11.6 63 4.0 ESE 28 37 15 20 1019.4 1019.3 0.0
22/03:00pm 20.8 16.4 11.7 56 5.1 ESE 26 35 14 19 1019.5 1019.4 0.0
22/02:30pm 20.5 16.0 11.4 56 5.1 ESE 26 33 14 18 1019.6 1019.5 0.0
22/02:00pm 20.9 16.1 11.5 55 5.3 ESE 28 35 15 19 1019.8 1019.8 0.0
22/01:30pm 20.9 16.4 11.3 54 5.4 ESE 26 35 14 19 1020.0 1020.0 0.0
22/01:00pm 20.4 16.2 11.1 55 5.2 ESE 24 35 13 19 1020.3 1020.3 0.0
22/12:30pm 22.1 18.5 10.6 48 6.4 ESE 20 33 11 18 1020.7 1020.7 0.0
22/12:00pm 21.5 17.6 9.4 46 6.6 E 20 30 11 16 1021.4 1021.3 0.0
22/11:30am 21.2 17.4 9.8 48 6.2 ESE 20 30 11 16 1021.9 1021.8 0.0
22/11:00am 19.6 15.3 9.5 52 5.4 ENE 22 32 12 17 1022.3 1022.2 0.0
22/10:30am 19.7 15.9 9.9 53 5.3 E 20 32 11 17 1022.5 1022.4 0.0
22/10:00am 18.4 14.1 9.5 56 4.7 ENE 22 33 12 18 1022.6 1022.5 0.0
22/09:30am 17.4 12.8 9.8 61 4.1 ENE 24 33 13 18 1022.9 1022.9 0.0
22/09:00am 16.2 11.6 9.8 66 3.4 ENE 24 33 13 18 1023.2 1023.2 0.0
22/08:30am 14.9 9.9 9.7 71 2.7 ENE 26 35 14 19 1023.3 1023.3 0.0
22/08:00am 14.2 8.9 9.8 75 2.3 ENE 28 37 15 20 1023.3 1023.3 0.0
22/07:30am 12.9 7.9 9.5 80 1.8 ENE 26 37 14 20 1023.2 1023.2 0.0
22/07:00am 12.3 7.2 9.3 82 1.5 ENE 26 39 14 21 1023.1 1023.1 0.0
22/06:30am 11.9 8.0 9.6 86 1.2 ENE 20 28 11 15 1023.0 1023.0 0.0
22/06:00am 11.7 7.8 9.4 86 1.2 ENE 20 28 11 15 1022.9 1022.9 0.0

Other Formats:

Comma delimited format used in spreadsheet applications
http://www.bom.gov.au/fwo/IDW60801/IDW60801.95636.axf

JavaScript Object Notation format (JSON) in row-major order
http://www.bom.gov.au/fwo/IDW60801/IDW60801.95636.json